Time;durP1;ratioP1;P1;durP2;ratioP2;P2;SDS_P1;SDS_P2;PMS_P1;PMS_P2;Temp;Humidity;BMP_temperature;BMP_pressure;BME280_temperature;BME280_humidity;BME280_pressure;Samples;Min_cycle;Max_cycle;Signal;HPM_P1;HPM_P2
2023/08/16 01:10:32;;;;;;;2.17;1.98;;;;;;;;;;5032923;28;20326;-32
2023/08/16 01:20:07;;;;;;;4.90;2.08;;;;;;;;;;5016550;28;20230;-34
2023/08/16 01:23:11;;;;;;;3.20;2.30;;;;;;;;;;5020435;28;20210;-32
2023/08/16 01:29:33;;;;;;;3.70;2.05;;;;;;;;;;5017994;28;20218;-35
2023/08/16 01:32:45;;;;;;;4.72;2.50;;;;;;;;;;5030910;28;20334;-35
2023/08/16 01:54:19;;;;;;;3.53;2.28;;;;;;;;;;5074466;28;20581;-41
2023/08/16 02:19:08;;;;;;;3.53;2.30;;;;;;;;;;5059739;28;20245;-42
2023/08/16 02:25:05;;;;;;;3.95;3.00;;;;;;;;;;5036928;28;20201;-39
2023/08/16 02:31:14;;;;;;;4.65;2.72;;;;;;;;;;5063829;28;20225;-36
2023/08/16 02:53:34;;;;;;;5.55;2.55;;;;;;;;;;5046473;28;20351;-39
2023/08/16 02:59:46;;;;;;;5.85;2.67;;;;;;;;;;5044958;28;20213;-41
2023/08/16 03:14:37;;;;;;;3.30;2.45;;;;;;;;;;5061415;28;20241;-39
2023/08/16 04:01:43;;;;;;;5.40;3.90;;;;;;;;;;5073076;28;20285;-31
2023/08/16 04:17:09;;;;;;;5.80;3.97;;;;;;;;;;5067311;28;20689;-33
2023/08/16 04:20:01;;;;;;;4.85;3.75;;;;;;;;;;5066954;28;20244;-34
2023/08/16 04:32:21;;;;;;;4.23;3.00;;;;;;;;;;5063829;28;20223;-34
2023/08/16 04:35:11;;;;;;;3.07;2.57;;;;;;;;;;5069267;28;20292;-32
2023/08/16 04:38:06;;;;;;;6.13;3.00;;;;;;;;;;5076723;28;20208;-35
2023/08/16 04:41:20;;;;;;;5.13;3.30;;;;;;;;;;5076260;28;20236;-29
2023/08/16 05:09:18;;;;;;;3.88;3.58;;;;;;;;;;5101550;28;20268;-33
2023/08/16 05:15:28;;;;;;;5.13;4.40;;;;;;;;;;5111367;28;20281;-32
2023/08/16 05:18:24;;;;;;;4.83;4.30;;;;;;;;;;5112783;28;20204;-30
2023/08/16 05:21:15;;;;;;;4.30;3.27;;;;;;;;;;5112090;28;20200;-32
2023/08/16 05:36:33;;;;;;;4.53;4.13;;;;;;;;;;5116914;28;20215;-35
2023/08/16 05:56:33;;;;;;;7.60;4.22;;;;;;;;;;5067875;28;20217;-30
2023/08/16 06:02:30;;;;;;;5.68;4.50;;;;;;;;;;5064521;28;20201;-34
2023/08/16 06:46:37;;;;;;;6.50;4.15;;;;;;;;;;5040143;28;20227;-29
2023/08/16 06:49:30;;;;;;;6.57;3.95;;;;;;;;;;5044868;28;20680;-29
2023/08/16 06:52:24;;;;;;;10.57;4.95;;;;;;;;;;5033720;28;20206;-29
2023/08/16 06:54:58;;;;;;;7.35;4.22;;;;;;;;;;5024339;28;20216;-31
2023/08/16 06:57:42;;;;;;;5.78;4.70;;;;;;;;;;5033027;28;20280;-33
2023/08/16 07:00:21;;;;;;;5.10;3.60;;;;;;;;;;5027623;28;20238;-33
2023/08/16 07:08:33;;;;;;;5.13;4.20;;;;;;;;;;5050563;28;20300;-34
2023/08/16 07:11:24;;;;;;;5.22;4.72;;;;;;;;;;5036860;28;20206;-32
2023/08/16 07:14:02;;;;;;;4.65;3.53;;;;;;;;;;5025078;28;20215;-34
2023/08/16 07:16:47;;;;;;;5.10;4.30;;;;;;;;;;5026628;28;20278;-30
2023/08/16 07:19:42;;;;;;;7.35;4.50;;;;;;;;;;5031514;28;20233;-34
2023/08/16 07:22:31;;;;;;;7.07;4.40;;;;;;;;;;5032059;28;20200;-35
2023/08/16 07:25:03;;;;;;;4.15;3.80;;;;;;;;;;5021848;28;20232;-33
2023/08/16 07:27:40;;;;;;;5.50;3.95;;;;;;;;;;5031613;28;20250;-35
2023/08/16 07:30:17;;;;;;;6.47;3.92;;;;;;;;;;5025377;28;20234;-36
2023/08/16 07:32:57;;;;;;;7.68;4.68;;;;;;;;;;5033113;28;20229;-32
2023/08/16 07:35:30;;;;;;;4.70;4.28;;;;;;;;;;5029974;28;20210;-33
2023/08/16 07:40:40;;;;;;;4.88;3.92;;;;;;;;;;5032027;28;20326;-34
2023/08/16 07:43:39;;;;;;;6.38;4.22;;;;;;;;;;5030388;28;20214;-34
2023/08/16 07:49:21;;;;;;;5.68;4.25;;;;;;;;;;5031400;28;20226;-34
2023/08/16 07:55:12;;;;;;;4.32;3.92;;;;;;;;;;5012153;28;20222;-32
2023/08/16 07:58:06;;;;;;;4.47;3.83;;;;;;;;;;5012683;28;20206;-33
2023/08/16 08:01:13;;;;;;;6.85;4.25;;;;;;;;;;5026151;28;20222;-32
2023/08/16 08:07:18;;;;;;;4.95;4.07;;;;;;;;;;5028720;28;20214;-32
2023/08/16 08:16:39;;;;;;;4.68;3.65;;;;;;;;;;5076161;28;20193;-34
2023/08/16 08:19:45;;;;;;;6.35;4.20;;;;;;;;;;5085668;28;20241;-32
2023/08/16 08:23:02;;;;;;;4.70;3.67;;;;;;;;;;5085898;28;20208;-33
2023/08/16 08:25:50;;;;;;;4.50;3.85;;;;;;;;;;5084654;28;20228;-34
2023/08/16 08:28:32;;;;;;;4.32;3.85;;;;;;;;;;5082908;28;20276;-32
2023/08/16 08:31:33;;;;;;;7.68;3.88;;;;;;;;;;5084511;28;20209;-33
2023/08/16 08:34:14;;;;;;;4.35;3.80;;;;;;;;;;5093696;28;20235;-32
2023/08/16 08:36:54;;;;;;;4.05;3.65;;;;;;;;;;5093193;28;20211;-33
2023/08/16 08:42:40;;;;;;;5.28;3.83;;;;;;;;;;5095405;28;20215;-33
2023/08/16 08:45:29;;;;;;;4.82;4.32;;;;;;;;;;5091648;28;20212;-33
2023/08/16 09:24:43;;;;;;;4.25;3.65;;;;;;;;;;5008184;28;20210;-36
2023/08/16 09:33:37;;;;;;;4.50;4.07;;;;;;;;;;5060158;28;20231;-34
2023/08/16 10:43:42;;;;;;;3.53;2.97;;;;;;;;;;5050320;28;20209;-46
2023/08/16 10:49:25;;;;;;;6.78;2.95;;;;;;;;;;4988893;28;20227;-40
2023/08/16 11:01:53;;;;;;;3.13;2.75;;;;;;;;;;5034200;28;20245;-36
2023/08/16 11:12:56;;;;;;;3.28;2.97;;;;;;;;;;5165131;22;20302;-27
2023/08/16 11:15:24;;;;;;;4.60;2.80;;;;;;;;;;5083022;28;20683;-30
2023/08/16 11:17:51;;;;;;;3.70;2.70;;;;;;;;;;5085165;28;20204;-28
2023/08/16 11:20:18;;;;;;;2.90;2.70;;;;;;;;;;5071820;28;20316;-28
2023/08/16 11:22:47;;;;;;;2.70;2.50;;;;;;;;;;5078711;28;20307;-28
2023/08/16 11:25:14;;;;;;;2.80;2.60;;;;;;;;;;5088164;28;20316;-29
2023/08/16 11:27:41;;;;;;;3.58;2.50;;;;;;;;;;5071471;28;20213;-28
2023/08/16 11:30:09;;;;;;;3.08;2.88;;;;;;;;;;5077139;28;20217;-29
2023/08/16 11:32:37;;;;;;;2.70;2.50;;;;;;;;;;5080200;28;20268;-26
2023/08/16 11:35:08;;;;;;;5.07;3.15;;;;;;;;;;5078774;28;20210;-31
2023/08/16 11:37:35;;;;;;;3.00;2.70;;;;;;;;;;5070398;28;20197;-32
2023/08/16 11:40:04;;;;;;;2.63;2.42;;;;;;;;;;5069530;28;20228;-32
2023/08/16 11:42:32;;;;;;;6.75;3.13;;;;;;;;;;5073251;28;20201;-30
2023/08/16 11:44:59;;;;;;;4.45;2.65;;;;;;;;;;5080283;28;20201;-31
2023/08/16 11:47:26;;;;;;;3.08;2.75;;;;;;;;;;5077441;28;20310;-28
2023/08/16 11:49:53;;;;;;;3.00;2.70;;;;;;;;;;5070013;28;20221;-29
2023/08/16 11:52:21;;;;;;;3.00;2.30;;;;;;;;;;5072829;28;20646;-30
2023/08/16 11:54:48;;;;;;;6.68;2.92;;;;;;;;;;5081207;28;20210;-30
2023/08/16 11:57:18;;;;;;;4.85;2.60;;;;;;;;;;5079658;28;20192;-32
2023/08/16 11:59:54;;;;;;;3.47;2.30;;;;;;;;;;5082079;28;20221;-29
2023/08/16 12:02:22;;;;;;;3.92;2.75;;;;;;;;;;5078915;28;20209;-29
2023/08/16 12:04:49;;;;;;;3.95;2.70;;;;;;;;;;5070841;28;20590;-31
2023/08/16 12:07:16;;;;;;;3.80;2.75;;;;;;;;;;5069680;28;20229;-30
2023/08/16 12:09:43;;;;;;;5.75;2.90;;;;;;;;;;5076042;28;20229;-31
2023/08/16 12:12:11;;;;;;;2.90;2.60;;;;;;;;;;5089604;28;20218;-29
2023/08/16 12:14:39;;;;;;;3.38;2.50;;;;;;;;;;5074916;28;20264;-32
2023/08/16 12:17:06;;;;;;;3.00;2.55;;;;;;;;;;5085890;28;20203;-26
2023/08/16 12:19:33;;;;;;;4.25;2.55;;;;;;;;;;5070053;28;20224;-28
2023/08/16 12:22:00;;;;;;;2.83;2.60;;;;;;;;;;5068920;28;20213;-29
2023/08/16 12:24:28;;;;;;;2.58;2.22;;;;;;;;;;5075458;28;20203;-26
2023/08/16 12:26:55;;;;;;;2.55;2.33;;;;;;;;;;5076783;28;20199;-30
2023/08/16 12:29:22;;;;;;;3.75;2.38;;;;;;;;;;5077154;28;20247;-32
2023/08/16 12:31:50;;;;;;;3.38;2.22;;;;;;;;;;5072833;28;20658;-30
2023/08/16 12:34:17;;;;;;;3.10;2.70;;;;;;;;;;5065299;28;20197;-29
2023/08/16 12:36:45;;;;;;;2.72;2.40;;;;;;;;;;5064834;28;20205;-35
2023/08/16 12:39:12;;;;;;;2.70;2.45;;;;;;;;;;5073837;28;20225;-29
2023/08/16 12:41:39;;;;;;;2.58;2.38;;;;;;;;;;5070891;28;20232;-30
2023/08/16 12:44:06;;;;;;;4.65;2.65;;;;;;;;;;5074420;28;20208;-33
2023/08/16 12:46:33;;;;;;;2.85;2.30;;;;;;;;;;5070822;28;20209;-30
2023/08/16 12:49:02;;;;;;;3.25;2.20;;;;;;;;;;5081723;28;20383;-27
2023/08/16 12:51:29;;;;;;;2.92;2.03;;;;;;;;;;5081400;28;20792;-26
2023/08/16 12:53:56;;;;;;;2.38;1.92;;;;;;;;;;5067615;28;20221;-31
2023/08/16 12:56:23;;;;;;;2.85;2.40;;;;;;;;;;5080516;28;20200;-29
2023/08/16 12:58:50;;;;;;;2.45;2.25;;;;;;;;;;5079391;28;20227;-29
2023/08/16 13:01:17;;;;;;;2.20;2.10;;;;;;;;;;5079988;28;20209;-31
2023/08/16 13:03:45;;;;;;;3.10;2.05;;;;;;;;;;5069456;28;20207;-30
2023/08/16 13:06:15;;;;;;;2.20;2.00;;;;;;;;;;5068544;28;20209;-30
2023/08/16 13:08:42;;;;;;;3.92;2.40;;;;;;;;;;5077853;28;20282;-29
2023/08/16 13:11:09;;;;;;;4.40;2.35;;;;;;;;;;5088150;28;20208;-31
2023/08/16 13:13:36;;;;;;;3.13;1.98;;;;;;;;;;5081084;28;20209;-29
2023/08/16 13:16:04;;;;;;;4.63;2.45;;;;;;;;;;5080326;28;20212;-29
2023/08/16 13:18:31;;;;;;;3.25;2.45;;;;;;;;;;5074958;28;20227;-29
2023/08/16 13:20:59;;;;;;;3.35;2.47;;;;;;;;;;5084730;28;20472;-31
2023/08/16 13:23:28;;;;;;;7.47;5.72;;;;;;;;;;5081763;28;20228;-30
2023/08/16 13:25:56;;;;;;;11.30;6.10;;;;;;;;;;5082866;28;20208;-29
2023/08/16 13:28:23;;;;;;;5.05;3.83;;;;;;;;;;5068793;28;20444;-28
2023/08/16 13:30:51;;;;;;;2.75;2.55;;;;;;;;;;5079339;28;20212;-32
2023/08/16 13:33:18;;;;;;;7.20;5.50;;;;;;;;;;5089932;28;20206;-29
2023/08/16 13:35:45;;;;;;;9.50;6.30;;;;;;;;;;5072490;28;20560;-29
2023/08/16 13:38:13;;;;;;;5.10;2.17;;;;;;;;;;5071556;28;20213;-28
2023/08/16 13:40:41;;;;;;;2.42;2.25;;;;;;;;;;5083365;28;20224;-27
2023/08/16 13:43:08;;;;;;;3.33;2.17;;;;;;;;;;5079846;28;20233;-30
2023/08/16 13:45:36;;;;;;;2.10;1.92;;;;;;;;;;5080782;28;20205;-31
2023/08/16 13:48:03;;;;;;;2.05;1.95;;;;;;;;;;5091032;28;20216;-30
2023/08/16 13:50:31;;;;;;;3.03;2.30;;;;;;;;;;5072166;28;20330;-33
2023/08/16 13:52:58;;;;;;;2.40;2.20;;;;;;;;;;5085562;28;20205;-27
2023/08/16 13:55:26;;;;;;;4.82;2.53;;;;;;;;;;5092006;28;20218;-31
2023/08/16 13:57:55;;;;;;;3.75;2.50;;;;;;;;;;5086833;28;20204;-31
2023/08/16 14:00:22;;;;;;;3.80;2.65;;;;;;;;;;5075247;28;20224;-27
2023/08/16 14:02:49;;;;;;;2.90;2.70;;;;;;;;;;5085284;28;20216;-30
2023/08/16 14:05:19;;;;;;;4.40;2.47;;;;;;;;;;5089669;28;20211;-28
2023/08/16 14:07:46;;;;;;;4.95;2.90;;;;;;;;;;5074439;28;20321;-29
2023/08/16 14:10:14;;;;;;;5.30;2.38;;;;;;;;;;5073779;28;20222;-28
2023/08/16 14:12:41;;;;;;;3.83;2.28;;;;;;;;;;5080279;28;20216;-33
2023/08/16 14:15:10;;;;;;;2.50;2.30;;;;;;;;;;5080430;28;20287;-27
2023/08/16 14:17:37;;;;;;;3.38;2.58;;;;;;;;;;5078737;28;20288;-32
2023/08/16 14:20:07;;;;;;;3.03;2.67;;;;;;;;;;5089765;28;20228;-34
2023/08/16 14:22:34;;;;;;;3.20;2.72;;;;;;;;;;5086446;28;20220;-31
2023/08/16 14:25:01;;;;;;;2.58;2.38;;;;;;;;;;5089419;28;20204;-33
2023/08/16 14:27:29;;;;;;;2.50;2.25;;;;;;;;;;5082974;28;20211;-30
2023/08/16 14:29:56;;;;;;;2.78;2.58;;;;;;;;;;5086486;28;20754;-33
2023/08/16 14:32:24;;;;;;;3.30;2.60;;;;;;;;;;5094802;28;20295;-27
2023/08/16 14:34:54;;;;;;;6.72;2.65;;;;;;;;;;5078914;28;20205;-33
2023/08/16 14:37:21;;;;;;;5.60;3.08;;;;;;;;;;5089385;28;20204;-30
2023/08/16 14:39:48;;;;;;;2.83;2.28;;;;;;;;;;5087187;28;20240;-28
2023/08/16 14:42:17;;;;;;;4.13;2.80;;;;;;;;;;5083914;28;20206;-32
2023/08/16 14:44:44;;;;;;;4.07;2.90;;;;;;;;;;5080555;28;20295;-30
2023/08/16 14:47:11;;;;;;;4.13;2.67;;;;;;;;;;5081259;28;20205;-28
2023/08/16 14:49:40;;;;;;;5.22;3.10;;;;;;;;;;5083163;28;20444;-29
2023/08/16 14:52:07;;;;;;;5.03;2.97;;;;;;;;;;5088092;28;20211;-29
2023/08/16 14:54:34;;;;;;;3.83;2.70;;;;;;;;;;5081885;28;20311;-30
2023/08/16 14:57:01;;;;;;;2.83;2.47;;;;;;;;;;5073361;28;20221;-28
2023/08/16 14:59:28;;;;;;;3.00;2.80;;;;;;;;;;5074827;28;20304;-29
2023/08/16 15:01:55;;;;;;;5.18;3.55;;;;;;;;;;5090252;28;20821;-32
2023/08/16 15:04:22;;;;;;;3.13;2.65;;;;;;;;;;5090509;28;20200;-27
2023/08/16 15:06:51;;;;;;;3.22;2.92;;;;;;;;;;5086444;28;20218;-27
2023/08/16 15:09:19;;;;;;;4.05;2.97;;;;;;;;;;5076244;28;20312;-28
2023/08/16 15:11:46;;;;;;;3.70;2.85;;;;;;;;;;5071418;28;20209;-32
2023/08/16 15:14:13;;;;;;;3.22;2.92;;;;;;;;;;5073064;28;20291;-30
2023/08/16 15:16:40;;;;;;;3.00;2.80;;;;;;;;;;5082671;28;20216;-31
2023/08/16 15:19:07;;;;;;;3.05;2.75;;;;;;;;;;5090518;28;20258;-29
2023/08/16 15:21:37;;;;;;;4.50;3.45;;;;;;;;;;5087431;28;20236;-28
2023/08/16 15:24:07;;;;;;;4.18;2.75;;;;;;;;;;5070566;28;20259;-29
2023/08/16 15:26:34;;;;;;;5.93;3.00;;;;;;;;;;5077086;28;20209;-27
2023/08/16 15:29:01;;;;;;;3.78;3.05;;;;;;;;;;5079680;28;20224;-29
2023/08/16 15:31:28;;;;;;;3.33;3.03;;;;;;;;;;5077550;28;20236;-30
2023/08/16 15:33:55;;;;;;;4.68;2.90;;;;;;;;;;5085155;28;20204;-31
2023/08/16 15:36:22;;;;;;;4.40;3.30;;;;;;;;;;5086106;28;20207;-28
2023/08/16 15:38:50;;;;;;;4.25;2.60;;;;;;;;;;5077116;28;20223;-30
2023/08/16 15:41:18;;;;;;;3.05;2.65;;;;;;;;;;5083698;28;20200;-31
2023/08/16 15:43:45;;;;;;;3.70;2.90;;;;;;;;;;5075977;28;20212;-26
2023/08/16 15:46:14;;;;;;;3.70;3.10;;;;;;;;;;5077427;28;20298;-31
2023/08/16 15:48:41;;;;;;;4.75;2.40;;;;;;;;;;5070769;28;20300;-32
2023/08/16 15:51:08;;;;;;;2.80;2.60;;;;;;;;;;5069009;28;20213;-31
2023/08/16 15:53:35;;;;;;;2.90;2.70;;;;;;;;;;5076064;28;20212;-30
2023/08/16 15:56:03;;;;;;;3.80;2.85;;;;;;;;;;5078929;28;20291;-29
2023/08/16 15:58:32;;;;;;;4.60;2.67;;;;;;;;;;5070591;28;20205;-29
2023/08/16 16:00:59;;;;;;;3.47;2.63;;;;;;;;;;5085454;28;20208;-31
2023/08/16 16:03:27;;;;;;;7.30;2.83;;;;;;;;;;5069982;28;20196;-28
2023/08/16 16:05:54;;;;;;;2.83;2.63;;;;;;;;;;5069080;28;20211;-31
2023/08/16 16:08:21;;;;;;;4.43;3.00;;;;;;;;;;5087655;28;20231;-28
2023/08/16 16:10:49;;;;;;;3.00;2.78;;;;;;;;;;5089602;28;20204;-27
2023/08/16 16:13:16;;;;;;;3.15;2.95;;;;;;;;;;5078731;28;20220;-29
2023/08/16 16:15:44;;;;;;;3.33;2.92;;;;;;;;;;5076697;28;20215;-30
2023/08/16 16:18:12;;;;;;;3.05;2.63;;;;;;;;;;5077391;28;20201;-29
2023/08/16 16:20:39;;;;;;;3.28;2.97;;;;;;;;;;5069838;28;20224;-28
2023/08/16 16:23:06;;;;;;;3.28;2.95;;;;;;;;;;5069850;28;20219;-31
2023/08/16 16:25:34;;;;;;;4.05;3.20;;;;;;;;;;5080596;28;20205;-29
2023/08/16 16:28:01;;;;;;;5.60;3.22;;;;;;;;;;5080828;28;20228;-32
2023/08/16 16:30:28;;;;;;;6.82;4.65;;;;;;;;;;5089095;28;20220;-30
2023/08/16 16:32:57;;;;;;;5.43;2.58;;;;;;;;;;5081852;28;20207;-31
2023/08/16 16:35:24;;;;;;;5.70;2.85;;;;;;;;;;5093862;28;20211;-31
2023/08/16 16:37:52;;;;;;;3.70;3.08;;;;;;;;;;5073795;28;20196;-31
2023/08/16 16:40:19;;;;;;;6.10;2.97;;;;;;;;;;5083355;28;20227;-32
2023/08/16 16:42:46;;;;;;;2.97;2.47;;;;;;;;;;5086217;28;20205;-27
2023/08/16 16:45:13;;;;;;;3.22;3.00;;;;;;;;;;5084868;28;20201;-30
2023/08/16 16:47:41;;;;;;;2.33;2.22;;;;;;;;;;5091413;28;20204;-32
2023/08/16 16:50:10;;;;;;;7.35;2.83;;;;;;;;;;5093284;28;20271;-31
2023/08/16 16:52:37;;;;;;;3.38;2.22;;;;;;;;;;5090245;28;20208;-31
2023/08/16 16:55:05;;;;;;;4.00;2.20;;;;;;;;;;5086442;28;20219;-27
2023/08/16 16:57:33;;;;;;;4.15;2.20;;;;;;;;;;5082529;28;20288;-31
2023/08/16 17:00:00;;;;;;;2.35;2.00;;;;;;;;;;5088508;28;20228;-29
2023/08/16 17:02:27;;;;;;;2.25;1.42;;;;;;;;;;5077116;28;20279;-29
2023/08/16 17:04:54;;;;;;;1.77;1.10;;;;;;;;;;5076399;28;20288;-28
2023/08/16 17:07:23;;;;;;;1.52;1.42;;;;;;;;;;5074191;28;20244;-27
2023/08/16 17:09:50;;;;;;;1.50;1.40;;;;;;;;;;5077469;28;20225;-29
2023/08/16 17:12:17;;;;;;;2.15;1.30;;;;;;;;;;5091453;28;20223;-29
2023/08/16 17:14:44;;;;;;;4.63;1.30;;;;;;;;;;5082697;28;20211;-31
2023/08/16 17:17:11;;;;;;;1.90;1.80;;;;;;;;;;5082991;28;20200;-31
2023/08/16 17:19:38;;;;;;;1.80;1.30;;;;;;;;;;5093170;28;20235;-30
2023/08/16 17:22:06;;;;;;;1.15;1.15;;;;;;;;;;5084041;28;20219;-28
2023/08/16 17:24:34;;;;;;;1.23;1.13;;;;;;;;;;5086089;28;20218;-29
2023/08/16 17:27:01;;;;;;;1.50;1.20;;;;;;;;;;5088138;28;20208;-30
2023/08/16 17:29:29;;;;;;;1.40;1.30;;;;;;;;;;5086992;28;20270;-29
2023/08/16 17:31:56;;;;;;;2.92;1.15;;;;;;;;;;5083883;28;20211;-30
2023/08/16 17:34:23;;;;;;;1.30;1.20;;;;;;;;;;5078797;28;20218;-30
2023/08/16 17:36:50;;;;;;;1.52;1.05;;;;;;;;;;5081385;28;20215;-32
2023/08/16 17:39:19;;;;;;;2.45;1.50;;;;;;;;;;5089512;28;20315;-29
2023/08/16 17:41:47;;;;;;;2.10;1.50;;;;;;;;;;5083094;28;20238;-27
2023/08/16 17:44:14;;;;;;;1.42;1.33;;;;;;;;;;5067507;28;20219;-30
2023/08/16 17:46:43;;;;;;;1.95;1.27;;;;;;;;;;5083466;28;20209;-28
2023/08/16 17:49:10;;;;;;;1.58;1.10;;;;;;;;;;5076487;28;20220;-27
2023/08/16 17:51:37;;;;;;;0.85;0.85;;;;;;;;;;5074232;28;20302;-27
2023/08/16 17:54:05;;;;;;;3.00;1.40;;;;;;;;;;5072146;28;20230;-31
2023/08/16 17:56:32;;;;;;;1.40;1.30;;;;;;;;;;5077836;28;20204;-28
2023/08/16 17:59:00;;;;;;;2.58;1.30;;;;;;;;;;5082568;28;20227;-29
2023/08/16 18:01:28;;;;;;;1.10;1.00;;;;;;;;;;5086043;28;20203;-29
2023/08/16 18:03:55;;;;;;;2.17;1.98;;;;;;;;;;5073771;28;20291;-30
2023/08/16 18:06:22;;;;;;;1.63;0.90;;;;;;;;;;5074024;28;20262;-29
2023/08/16 18:08:49;;;;;;;1.15;1.10;;;;;;;;;;5073670;28;20234;-30
2023/08/16 18:11:16;;;;;;;0.80;0.80;;;;;;;;;;5166539;22;20213;-30
2023/08/16 18:13:43;;;;;;;1.60;1.00;;;;;;;;;;5065399;28;20209;-28
2023/08/16 18:16:12;;;;;;;2.25;0.98;;;;;;;;;;5061531;28;20205;-28
2023/08/16 18:18:39;;;;;;;0.80;0.80;;;;;;;;;;5076171;28;20207;-29
2023/08/16 18:21:06;;;;;;;1.45;1.05;;;;;;;;;;5076697;28;20199;-27
2023/08/16 18:23:33;;;;;;;1.42;1.10;;;;;;;;;;5074289;28;20212;-27
2023/08/16 18:26:02;;;;;;;1.80;1.00;;;;;;;;;;5074162;28;20197;-30
2023/08/16 18:28:35;;;;;;;2.47;0.90;;;;;;;;;;5064579;28;20200;-25
2023/08/16 18:31:03;;;;;;;1.30;1.20;;;;;;;;;;5068489;28;20319;-32
2023/08/16 18:33:31;;;;;;;4.63;1.30;;;;;;;;;;5062338;28;20213;-28
2023/08/16 18:35:58;;;;;;;2.20;1.92;;;;;;;;;;5069198;28;20227;-28
2023/08/16 18:38:25;;;;;;;1.42;1.33;;;;;;;;;;5069272;28;20209;-28
2023/08/16 18:40:53;;;;;;;2.47;1.27;;;;;;;;;;5069764;28;20204;-27
2023/08/16 18:43:20;;;;;;;1.45;1.10;;;;;;;;;;5065512;28;20207;-26
2023/08/16 18:45:47;;;;;;;4.85;1.20;;;;;;;;;;5074538;28;20269;-28
2023/08/16 18:48:14;;;;;;;3.95;2.05;;;;;;;;;;5080086;28;20286;-31
2023/08/16 18:50:44;;;;;;;1.50;1.40;;;;;;;;;;5070000;28;20236;-27
2023/08/16 18:53:11;;;;;;;1.20;1.00;;;;;;;;;;5068490;28;20284;-30
2023/08/16 18:55:41;;;;;;;1.30;1.20;;;;;;;;;;5075273;28;20304;-26
2023/08/16 18:58:08;;;;;;;1.42;1.10;;;;;;;;;;5066247;28;20308;-27
2023/08/16 19:00:37;;;;;;;0.98;0.98;;;;;;;;;;5075319;28;20229;-29
2023/08/16 19:03:04;;;;;;;1.20;1.10;;;;;;;;;;5071059;28;20258;-32
2023/08/16 19:05:31;;;;;;;1.60;1.10;;;;;;;;;;5069721;28;20208;-28
2023/08/16 19:07:59;;;;;;;4.20;1.25;;;;;;;;;;5066738;28;20493;-33
2023/08/16 19:10:27;;;;;;;1.15;1.15;;;;;;;;;;5067310;28;20238;-30
2023/08/16 19:12:54;;;;;;;2.83;1.15;;;;;;;;;;5059205;28;20334;-30
2023/08/16 19:15:21;;;;;;;0.80;0.80;;;;;;;;;;5065153;28;20204;-31
2023/08/16 19:17:48;;;;;;;1.25;1.13;;;;;;;;;;5065303;28;20657;-31
2023/08/16 19:20:15;;;;;;;1.42;1.25;;;;;;;;;;5067640;28;20240;-27
2023/08/16 19:22:42;;;;;;;3.75;1.10;;;;;;;;;;5066246;28;20212;-26
2023/08/16 19:25:11;;;;;;;4.75;1.33;;;;;;;;;;5073531;28;20304;-30
2023/08/16 19:27:39;;;;;;;1.85;1.10;;;;;;;;;;5066909;28;20207;-31
2023/08/16 19:30:07;;;;;;;3.53;1.15;;;;;;;;;;5062969;28;20228;-33
2023/08/16 19:32:34;;;;;;;1.27;1.27;;;;;;;;;;5065809;28;20225;-31
2023/08/16 19:35:01;;;;;;;1.58;1.15;;;;;;;;;;5063737;28;20205;-27
2023/08/16 19:37:30;;;;;;;1.30;1.20;;;;;;;;;;5062723;28;20218;-28
2023/08/16 19:39:57;;;;;;;2.45;1.10;;;;;;;;;;5069092;28;20235;-31
2023/08/16 19:42:26;;;;;;;3.00;1.48;;;;;;;;;;5067103;28;20199;-28
2023/08/16 19:44:53;;;;;;;1.10;1.10;;;;;;;;;;5059186;28;20205;-29
2023/08/16 19:47:21;;;;;;;3.10;1.33;;;;;;;;;;5064422;28;20193;-29
2023/08/16 19:49:48;;;;;;;1.25;1.20;;;;;;;;;;5063693;28;20230;-31
2023/08/16 19:52:15;;;;;;;1.48;1.13;;;;;;;;;;5063268;28;20208;-28
2023/08/16 19:54:43;;;;;;;3.47;1.40;;;;;;;;;;5065088;28;20208;-29
2023/08/16 19:57:10;;;;;;;1.13;1.05;;;;;;;;;;5065083;28;20280;-30
2023/08/16 19:59:38;;;;;;;2.95;1.35;;;;;;;;;;5060220;28;20224;-30
2023/08/16 20:02:05;;;;;;;2.28;1.23;;;;;;;;;;5067211;28;20214;-31
2023/08/16 20:04:33;;;;;;;2.60;1.52;;;;;;;;;;5068892;28;20258;-31
2023/08/16 20:07:00;;;;;;;1.80;1.40;;;;;;;;;;5063927;28;20208;-31
2023/08/16 20:09:27;;;;;;;1.50;1.40;;;;;;;;;;5068802;28;20280;-28
2023/08/16 20:11:54;;;;;;;1.45;1.35;;;;;;;;;;5074677;28;20208;-30
2023/08/16 20:14:21;;;;;;;1.75;1.38;;;;;;;;;;5066254;28;20294;-30
2023/08/16 20:16:50;;;;;;;1.67;1.58;;;;;;;;;;5065220;28;20274;-29
2023/08/16 20:19:17;;;;;;;1.23;1.13;;;;;;;;;;5064158;28;20233;-25
2023/08/16 20:21:44;;;;;;;1.45;1.30;;;;;;;;;;5068785;28;20208;-30
2023/08/16 20:24:11;;;;;;;3.30;1.40;;;;;;;;;;5067523;28;20216;-24
2023/08/16 20:26:38;;;;;;;2.53;1.40;;;;;;;;;;5068140;28;20214;-28
2023/08/16 20:29:05;;;;;;;1.38;1.27;;;;;;;;;;5064807;28;20228;-29
2023/08/16 20:31:32;;;;;;;1.45;1.35;;;;;;;;;;5070101;28;20228;-28
2023/08/16 20:34:01;;;;;;;1.63;1.20;;;;;;;;;;5072782;28;20206;-30
2023/08/16 20:36:31;;;;;;;1.10;1.00;;;;;;;;;;5069773;28;20217;-28
2023/08/16 20:38:58;;;;;;;1.50;1.40;;;;;;;;;;5072756;28;20301;-27
2023/08/16 20:41:26;;;;;;;1.20;1.20;;;;;;;;;;5070202;28;20200;-26
2023/08/16 20:43:53;;;;;;;1.58;1.23;;;;;;;;;;5068792;28;20283;-27
2023/08/16 20:46:20;;;;;;;2.80;1.17;;;;;;;;;;5061160;28;20208;-27
2023/08/16 20:48:47;;;;;;;1.52;1.30;;;;;;;;;;5069326;28;20233;-29
2023/08/16 20:51:16;;;;;;;1.50;1.40;;;;;;;;;;5076628;28;20230;-29
2023/08/16 20:53:43;;;;;;;1.27;1.13;;;;;;;;;;5075640;28;20203;-30
2023/08/16 20:56:10;;;;;;;2.45;1.40;;;;;;;;;;5068620;28;20302;-27
2023/08/16 20:58:38;;;;;;;1.77;1.40;;;;;;;;;;5065338;28;20217;-32
2023/08/16 21:01:05;;;;;;;1.95;1.40;;;;;;;;;;5070601;28;20200;-28
2023/08/16 21:03:32;;;;;;;1.80;1.50;;;;;;;;;;5072810;28;20200;-29
2023/08/16 21:06:00;;;;;;;1.95;1.60;;;;;;;;;;5065069;28;20207;-30
2023/08/16 21:08:29;;;;;;;1.60;1.50;;;;;;;;;;5066945;28;20203;-27
2023/08/16 21:10:56;;;;;;;1.88;1.38;;;;;;;;;;5079943;28;20296;-30
2023/08/16 21:13:23;;;;;;;4.93;2.15;;;;;;;;;;5061838;28;20212;-28
2023/08/16 21:15:50;;;;;;;1.48;1.33;;;;;;;;;;5081374;28;20206;-30
2023/08/16 21:18:17;;;;;;;1.73;1.60;;;;;;;;;;5072799;28;20213;-28
2023/08/16 21:20:45;;;;;;;2.28;1.80;;;;;;;;;;5071519;28;20227;-31
2023/08/16 21:23:12;;;;;;;2.60;1.50;;;;;;;;;;5070368;28;20204;-26
2023/08/16 21:25:43;;;;;;;2.63;1.55;;;;;;;;;;5085390;28;20211;-29
2023/08/16 21:28:10;;;;;;;2.20;1.55;;;;;;;;;;5068921;28;20203;-31
2023/08/16 21:30:37;;;;;;;3.60;1.55;;;;;;;;;;5074912;28;20227;-27
2023/08/16 21:33:04;;;;;;;4.90;1.60;;;;;;;;;;5083497;28;20199;-28
2023/08/16 21:35:37;;;;;;;3.58;1.70;;;;;;;;;;5078372;28;20229;-32
2023/08/16 21:38:05;;;;;;;3.00;1.70;;;;;;;;;;5076871;28;20203;-28
2023/08/16 21:40:33;;;;;;;3.95;1.60;;;;;;;;;;5073584;28;20592;-29
2023/08/16 21:43:01;;;;;;;2.78;1.80;;;;;;;;;;5068118;28;20301;-28
2023/08/16 21:45:28;;;;;;;2.63;1.77;;;;;;;;;;5076583;28;20214;-27
2023/08/16 21:48:00;;;;;;;1.88;1.52;;;;;;;;;;5078689;28;20199;-31
2023/08/16 21:50:28;;;;;;;1.70;1.60;;;;;;;;;;5075663;28;20252;-25
2023/08/16 21:52:55;;;;;;;3.90;1.60;;;;;;;;;;5076719;28;20661;-29
2023/08/16 21:55:22;;;;;;;4.53;1.83;;;;;;;;;;5072596;28;20215;-27
2023/08/16 21:57:49;;;;;;;1.83;1.50;;;;;;;;;;5069458;28;20219;-33
2023/08/16 22:00:18;;;;;;;3.13;1.75;;;;;;;;;;5073827;28;20278;-31
2023/08/16 22:02:46;;;;;;;1.95;1.77;;;;;;;;;;5076155;28;20229;-30
2023/08/16 22:05:13;;;;;;;4.68;2.40;;;;;;;;;;5073566;28;20208;-29
2023/08/16 22:07:41;;;;;;;4.05;2.08;;;;;;;;;;5071449;28;20206;-28
2023/08/16 22:10:09;;;;;;;2.92;1.90;;;;;;;;;;5076618;28;20320;-32
2023/08/16 22:12:36;;;;;;;2.40;1.92;;;;;;;;;;5079967;28;20224;-29
2023/08/16 22:15:03;;;;;;;1.63;1.52;;;;;;;;;;5077097;28;20206;-27
2023/08/16 22:17:32;;;;;;;2.17;1.73;;;;;;;;;;5080380;28;20279;-28
2023/08/16 22:19:59;;;;;;;1.80;1.70;;;;;;;;;;5073122;28;20231;-28
2023/08/16 22:22:26;;;;;;;2.58;1.83;;;;;;;;;;5071625;28;20207;-30
2023/08/16 22:24:53;;;;;;;2.80;2.13;;;;;;;;;;5073265;28;20208;-27
2023/08/16 22:27:20;;;;;;;2.45;2.03;;;;;;;;;;5071784;28;20213;-29
2023/08/16 22:29:48;;;;;;;3.38;1.95;;;;;;;;;;5071207;28;20290;-28
2023/08/16 22:32:15;;;;;;;1.60;1.50;;;;;;;;;;5083313;28;20223;-29
2023/08/16 22:34:43;;;;;;;2.03;1.83;;;;;;;;;;5073133;28;20236;-26
2023/08/16 22:37:10;;;;;;;1.90;1.80;;;;;;;;;;5072531;28;20218;-29
2023/08/16 22:39:37;;;;;;;2.20;2.00;;;;;;;;;;5083878;28;20228;-30
2023/08/16 22:42:05;;;;;;;3.67;1.90;;;;;;;;;;5076246;28;20204;-30
2023/08/16 22:44:32;;;;;;;2.70;2.33;;;;;;;;;;5073511;28;20203;-30
2023/08/16 22:47:00;;;;;;;3.30;2.00;;;;;;;;;;5079789;28;20207;-31
2023/08/16 22:49:27;;;;;;;2.95;2.22;;;;;;;;;;5072864;28;20240;-28
2023/08/16 22:51:55;;;;;;;6.70;2.45;;;;;;;;;;5072739;28;20234;-26
2023/08/16 22:54:22;;;;;;;2.13;1.92;;;;;;;;;;5075450;28;20207;-31
2023/08/16 22:56:49;;;;;;;3.45;1.90;;;;;;;;;;5078332;28;20303;-26
2023/08/16 22:59:17;;;;;;;3.05;1.90;;;;;;;;;;5077551;28;20232;-27
2023/08/16 23:01:44;;;;;;;3.17;2.28;;;;;;;;;;5088806;28;20214;-29
2023/08/16 23:04:11;;;;;;;5.13;2.05;;;;;;;;;;5092977;28;20203;-31
2023/08/16 23:06:38;;;;;;;4.78;2.03;;;;;;;;;;5081540;28;20204;-29
2023/08/16 23:09:07;;;;;;;2.40;1.90;;;;;;;;;;5086356;28;20317;-26
2023/08/16 23:11:34;;;;;;;2.03;1.90;;;;;;;;;;5079721;28;20227;-29
2023/08/16 23:14:01;;;;;;;3.10;2.33;;;;;;;;;;5070347;28;20209;-26
2023/08/16 23:16:28;;;;;;;3.90;2.25;;;;;;;;;;5084101;28;20202;-26